Time;durP1;ratioP1;P1;durP2;ratioP2;P2;SDS_P1;SDS_P2;PMS_P1;PMS_P2;Temp;Humidity;BMP_temperature;BMP_pressure;BME280_temperature;BME280_humidity;BME280_pressure;Samples;Min_cycle;Max_cycle;Signal;HPM_P1;HPM_P2
2021/11/10 00:01:38;;;;;;;14.03;11.00;;;8.60;98.30;;;;;;5015734;28;20421;-70
2021/11/10 00:04:05;;;;;;;14.93;12.07;;;8.50;98.60;;;;;;5015005;28;20453;-66
2021/11/10 00:06:31;;;;;;;13.80;10.33;;;8.60;98.80;;;;;;4996611;28;20426;-66
2021/11/10 00:08:57;;;;;;;12.77;10.77;;;8.50;98.60;;;;;;4995275;28;20469;-66
2021/11/10 00:11:23;;;;;;;14.57;10.00;;;8.50;98.30;;;;;;4996150;28;20183;-66
2021/11/10 00:13:48;;;;;;;12.87;10.10;;;8.50;98.30;;;;;;4990587;28;20495;-67
2021/11/10 00:16:14;;;;;;;13.60;10.80;;;8.50;98.30;;;;;;5015511;28;20171;-66
2021/11/10 00:18:40;;;;;;;16.57;11.87;;;8.40;98.10;;;;;;5014841;28;20190;-72
2021/11/10 00:21:06;;;;;;;13.93;12.23;;;8.40;98.00;;;;;;4997047;28;20194;-66
2021/11/10 00:23:33;;;;;;;19.33;13.67;;;8.40;98.10;;;;;;5015125;28;20794;-66
2021/11/10 00:25:59;;;;;;;17.60;12.13;;;8.30;98.10;;;;;;5014821;28;20259;-68
2021/11/10 00:28:25;;;;;;;17.80;11.93;;;8.30;98.30;;;;;;5015376;28;20552;-66
2021/11/10 00:30:51;;;;;;;19.20;13.23;;;8.30;98.30;;;;;;5014228;28;20429;-66
2021/11/10 00:33:16;;;;;;;24.70;13.30;;;8.30;98.40;;;;;;5014597;28;20571;-66
2021/11/10 00:35:42;;;;;;;18.13;13.43;;;8.20;98.30;;;;;;5014912;28;20442;-72
2021/11/10 00:38:09;;;;;;;16.50;13.13;;;8.30;98.30;;;;;;5014519;28;20190;-66
2021/11/10 00:40:36;;;;;;;15.97;12.60;;;8.20;98.60;;;;;;5015164;28;20182;-66
2021/11/10 00:43:01;;;;;;;15.97;11.80;;;8.20;98.70;;;;;;5014039;28;20464;-66
2021/11/10 00:45:27;;;;;;;12.27;10.97;;;8.20;98.70;;;;;;5015112;28;20429;-66
2021/11/10 00:47:53;;;;;;;16.13;10.90;;;8.20;98.50;;;;;;4996665;28;20219;-66
2021/11/10 00:50:19;;;;;;;12.23;10.30;;;8.20;98.50;;;;;;5014708;28;20418;-66
2021/11/10 00:52:45;;;;;;;15.53;12.00;;;8.20;98.70;;;;;;5012778;28;20182;-72
2021/11/10 00:55:11;;;;;;;14.00;10.90;;;8.30;98.80;;;;;;5014572;28;20478;-66
2021/11/10 00:57:37;;;;;;;13.70;11.10;;;8.30;98.70;;;;;;5014645;28;20933;-66
2021/11/10 01:00:05;;;;;;;13.67;11.37;;;8.30;98.70;;;;;;4996244;28;20992;-67
2021/11/10 01:02:31;;;;;;;13.63;10.23;;;8.30;98.80;;;;;;5014675;28;20644;-66
2021/11/10 01:04:56;;;;;;;13.30;10.20;;;8.30;98.40;;;;;;5013876;28;20485;-66
2021/11/10 01:07:22;;;;;;;11.13;9.40;;;8.30;98.50;;;;;;4996822;28;20213;-66
2021/11/10 01:09:53;;;;;;;11.50;8.87;;;8.20;98.40;;;;;;4995958;28;20185;-66
2021/11/10 01:12:19;;;;;;;10.33;9.03;;;8.20;98.40;;;;;;5014888;28;20186;-66
2021/11/10 01:14:45;;;;;;;12.30;9.17;;;8.20;98.50;;;;;;5013580;28;20460;-71
2021/11/10 01:17:11;;;;;;;11.93;9.33;;;8.20;98.50;;;;;;4980339;28;20421;-66
2021/11/10 01:19:37;;;;;;;17.03;9.80;;;8.20;98.40;;;;;;5014450;28;20179;-66
2021/11/10 01:22:04;;;;;;;13.13;10.00;;;8.20;98.20;;;;;;5012830;28;20463;-66
2021/11/10 01:24:30;;;;;;;10.73;9.60;;;8.10;98.00;;;;;;5014017;28;20433;-66
2021/11/10 01:26:55;;;;;;;9.53;8.53;;;8.20;98.40;;;;;;5013251;28;20437;-66
2021/11/10 01:29:21;;;;;;;9.80;8.83;;;8.10;98.50;;;;;;4995929;28;20179;-67
2021/11/10 01:31:47;;;;;;;8.90;8.00;;;8.10;98.50;;;;;;4996308;28;20171;-73
2021/11/10 01:34:13;;;;;;;10.27;8.50;;;8.00;98.40;;;;;;5013742;28;20598;-66
2021/11/10 01:36:39;;;;;;;10.07;8.60;;;8.10;98.30;;;;;;5014122;28;20170;-66
2021/11/10 01:39:06;;;;;;;11.87;9.47;;;8.00;98.00;;;;;;5013281;28;21025;-67
2021/11/10 01:41:47;;;;;;;9.47;8.40;;;8.00;98.30;;;;;;4996089;28;20943;-66
2021/11/10 01:44:21;;;;;;;10.80;7.90;;;8.00;98.40;;;;;;5013560;28;20468;-66
2021/11/10 01:46:47;;;;;;;13.20;8.67;;;8.00;98.30;;;;;;5013299;28;20728;-72
2021/11/10 01:49:13;;;;;;;13.23;8.87;;;8.00;98.50;;;;;;5013963;28;20413;-66
2021/11/10 01:51:48;;;;;;;12.93;9.17;;;7.90;98.60;;;;;;5013579;28;20395;-66
2021/11/10 01:54:25;;;;;;;13.20;8.10;;;8.00;98.50;;;;;;5013067;28;20519;-66
2021/11/10 01:56:51;;;;;;;10.83;8.53;;;7.90;98.50;;;;;;5013027;28;20437;-66
2021/11/10 01:59:27;;;;;;;10.10;8.13;;;7.90;98.80;;;;;;5013793;28;20426;-66
2021/11/10 02:01:53;;;;;;;10.50;8.67;;;7.90;98.70;;;;;;5012220;28;20429;-67
2021/11/10 02:04:19;;;;;;;10.73;8.20;;;7.90;98.70;;;;;;5013348;28;20488;-66
2021/11/10 02:06:45;;;;;;;11.17;8.70;;;7.90;98.50;;;;;;5013262;28;20182;-66
2021/11/10 02:09:10;;;;;;;12.80;9.10;;;7.90;98.50;;;;;;5012785;28;20211;-66
2021/11/10 02:11:39;;;;;;;9.77;8.00;;;7.90;98.60;;;;;;5013665;28;20425;-66
2021/11/10 02:14:06;;;;;;;11.20;8.20;;;7.90;98.70;;;;;;5012667;28;20183;-66
2021/11/10 02:16:37;;;;;;;10.73;8.33;;;7.90;98.80;;;;;;5013140;28;20556;-66
2021/11/10 02:19:05;;;;;;;12.10;9.37;;;7.90;98.90;;;;;;5012399;28;20441;-66
2021/11/10 02:21:31;;;;;;;12.40;9.13;;;7.90;98.70;;;;;;5012884;28;20453;-68
2021/11/10 02:23:59;;;;;;;10.73;8.63;;;7.90;98.60;;;;;;4992610;28;20416;-66
2021/11/10 02:26:25;;;;;;;10.50;8.13;;;7.80;98.80;;;;;;4993577;28;20415;-66
2021/11/10 02:28:51;;;;;;;9.10;8.20;;;7.80;98.80;;;;;;4975533;28;20485;-72
2021/11/10 02:31:18;;;;;;;8.57;7.70;;;7.80;98.70;;;;;;4993615;28;20477;-66
2021/11/10 02:33:44;;;;;;;11.40;9.20;;;7.90;98.90;;;;;;4993503;28;20737;-66
2021/11/10 02:36:10;;;;;;;10.10;7.83;;;7.80;98.50;;;;;;5008543;28;20531;-66
2021/11/10 02:38:38;;;;;;;11.77;8.60;;;7.80;98.60;;;;;;5013026;28;20468;-66
2021/11/10 02:41:05;;;;;;;11.37;8.27;;;7.80;98.90;;;;;;5011596;28;20504;-66
2021/11/10 02:43:31;;;;;;;12.80;9.50;;;7.80;98.60;;;;;;5013055;28;20494;-66
2021/11/10 02:45:57;;;;;;;12.60;8.37;;;7.80;98.60;;;;;;4994632;28;20472;-66
2021/11/10 02:48:23;;;;;;;10.23;9.20;;;7.70;98.80;;;;;;5012876;28;20207;-66
2021/11/10 02:50:50;;;;;;;10.60;8.40;;;7.80;98.70;;;;;;5012297;28;20476;-72
2021/11/10 02:53:16;;;;;;;10.57;8.27;;;7.80;98.60;;;;;;5011794;28;20433;-66
2021/11/10 02:55:42;;;;;;;13.30;9.20;;;7.80;99.00;;;;;;5012472;28;20821;-66
2021/11/10 02:58:09;;;;;;;18.37;9.27;;;7.80;99.00;;;;;;5011896;28;20179;-66
2021/11/10 03:00:36;;;;;;;10.27;8.30;;;7.80;99.00;;;;;;5012687;28;20748;-66
2021/11/10 03:03:02;;;;;;;13.53;9.47;;;7.80;98.50;;;;;;5011885;28;20410;-66
2021/11/10 03:05:29;;;;;;;11.60;8.57;;;7.80;98.50;;;;;;5011993;28;20887;-66
2021/11/10 03:07:55;;;;;;;11.57;9.60;;;7.70;98.50;;;;;;5011136;28;20590;-66
2021/11/10 03:10:21;;;;;;;12.87;8.50;;;7.70;98.70;;;;;;5012265;28;20461;-66
2021/11/10 03:12:47;;;;;;;10.93;8.13;;;7.80;99.10;;;;;;5011446;28;20826;-66
2021/11/10 03:15:13;;;;;;;9.83;8.80;;;7.70;98.80;;;;;;5011318;28;20408;-66
2021/11/10 03:17:40;;;;;;;13.20;8.10;;;7.70;98.80;;;;;;5012194;28;20486;-66
2021/11/10 03:20:07;;;;;;;11.03;8.80;;;7.80;98.50;;;;;;5011678;28;20461;-66
2021/11/10 03:22:33;;;;;;;8.30;7.50;;;7.60;98.40;;;;;;5012003;28;20437;-66
2021/11/10 03:25:00;;;;;;;10.53;7.80;;;7.70;98.60;;;;;;5011435;28;20443;-66
2021/11/10 03:27:26;;;;;;;9.53;7.73;;;7.60;98.80;;;;;;5012416;28;20492;-66
2021/11/10 03:29:52;;;;;;;9.70;8.17;;;7.60;98.60;;;;;;5011894;28;20429;-73
2021/11/10 03:32:21;;;;;;;10.33;7.90;;;7.60;98.70;;;;;;4994533;28;20396;-66
2021/11/10 03:34:50;;;;;;;12.97;8.20;;;7.60;98.80;;;;;;5012460;28;20785;-66
2021/11/10 03:37:17;;;;;;;11.70;7.73;;;7.60;98.90;;;;;;5011190;28;20442;-66
2021/11/10 03:39:42;;;;;;;9.87;8.33;;;7.60;99.00;;;;;;5012343;28;20424;-66
2021/11/10 03:42:08;;;;;;;13.30;9.40;;;7.60;98.80;;;;;;5011224;28;20473;-66
2021/11/10 03:44:34;;;;;;;10.03;8.60;;;7.60;98.90;;;;;;5011956;28;20429;-66
2021/11/10 03:47:00;;;;;;;11.70;8.30;;;7.60;98.90;;;;;;5011307;28;20447;-66
2021/11/10 03:49:27;;;;;;;12.27;9.10;;;7.60;98.70;;;;;;5011995;28;20170;-66
2021/11/10 03:51:53;;;;;;;13.40;8.73;;;7.60;98.80;;;;;;4994003;28;20261;-73
2021/11/10 03:54:21;;;;;;;12.13;9.17;;;7.60;98.80;;;;;;5011478;28;20426;-66
2021/11/10 03:56:47;;;;;;;10.60;9.50;;;7.60;99.20;;;;;;5011653;28;20429;-66
2021/11/10 03:59:14;;;;;;;12.60;9.73;;;7.70;99.20;;;;;;5011373;28;20445;-66
2021/11/10 04:01:40;;;;;;;10.53;9.20;;;7.70;98.90;;;;;;5012102;28;20409;-66
2021/11/10 04:04:06;;;;;;;14.83;9.23;;;7.60;99.00;;;;;;5010461;28;20418;-66
2021/11/10 04:06:33;;;;;;;13.27;9.00;;;7.80;99.10;;;;;;5012078;28;20421;-66
2021/11/10 04:08:59;;;;;;;13.53;9.10;;;7.60;98.60;;;;;;5010988;28;20530;-67
2021/11/10 04:11:25;;;;;;;12.17;8.20;;;7.70;98.50;;;;;;5011274;28;20759;-66
2021/11/10 04:13:52;;;;;;;15.83;8.97;;;7.60;98.70;;;;;;5011718;28;20763;-66
2021/11/10 04:16:22;;;;;;;9.30;8.07;;;7.60;98.60;;;;;;5010182;28;20434;-66
2021/11/10 04:18:50;;;;;;;9.93;8.77;;;7.60;98.80;;;;;;5014471;28;20424;-66
2021/11/10 04:21:16;;;;;;;10.70;8.77;;;7.70;98.90;;;;;;5014916;28;20447;-66
2021/11/10 04:23:42;;;;;;;11.20;8.13;;;7.60;98.60;;;;;;5014914;28;20531;-66
2021/11/10 04:26:08;;;;;;;11.33;9.50;;;7.60;98.70;;;;;;5014062;28;20431;-66
2021/11/10 04:28:34;;;;;;;11.37;8.57;;;7.60;98.30;;;;;;5014596;28;20221;-66
2021/11/10 04:31:00;;;;;;;9.80;8.53;;;7.60;98.30;;;;;;5014599;28;20471;-67
2021/11/10 04:33:26;;;;;;;10.20;8.90;;;7.60;98.40;;;;;;5015316;28;20403;-66
2021/11/10 04:35:52;;;;;;;14.63;9.00;;;7.60;98.70;;;;;;5015261;28;20519;-66
2021/11/10 04:38:17;;;;;;;10.80;9.00;;;7.50;98.40;;;;;;5014363;28;20668;-67
2021/11/10 04:40:44;;;;;;;15.20;10.03;;;7.50;98.40;;;;;;5015157;28;20440;-67
2021/11/10 04:43:10;;;;;;;11.33;8.17;;;7.50;98.30;;;;;;5014406;28;20225;-68
2021/11/10 04:45:38;;;;;;;12.17;8.63;;;7.30;98.20;;;;;;5015080;28;20975;-67
2021/11/10 04:48:04;;;;;;;10.73;8.47;;;7.10;98.10;;;;;;4996872;28;20472;-67
2021/11/10 04:50:31;;;;;;;11.10;8.27;;;7.40;98.40;;;;;;4997502;28;20800;-67
2021/11/10 04:52:57;;;;;;;7.87;7.07;;;7.40;98.60;;;;;;5014771;28;20432;-72
2021/11/10 04:55:23;;;;;;;8.60;7.70;;;7.30;98.90;;;;;;5013908;28;20487;-66
2021/11/10 04:57:49;;;;;;;9.50;8.60;;;7.40;99.10;;;;;;5014305;28;20438;-67
2021/11/10 05:00:15;;;;;;;8.53;6.37;;;7.40;99.00;;;;;;5014002;28;20416;-67
2021/11/10 05:02:41;;;;;;;6.60;5.73;;;7.40;98.90;;;;;;5014770;28;20219;-67
2021/11/10 05:05:08;;;;;;;7.37;6.80;;;7.50;98.90;;;;;;5013949;28;20464;-67
2021/11/10 05:07:34;;;;;;;7.67;6.50;;;7.50;98.70;;;;;;5014051;28;20443;-67
2021/11/10 05:10:01;;;;;;;6.90;6.20;;;7.50;98.90;;;;;;5013749;28;20429;-73
2021/11/10 05:12:28;;;;;;;9.60;6.40;;;7.40;99.10;;;;;;5013360;28;20425;-67
2021/11/10 05:14:56;;;;;;;9.67;5.70;;;7.40;99.10;;;;;;5013258;28;20433;-69
2021/11/10 05:17:26;;;;;;;11.77;6.63;;;7.60;99.00;;;;;;5012734;28;20443;-67
2021/11/10 05:19:52;;;;;;;7.40;5.70;;;7.50;98.70;;;;;;5013569;28;20859;-66
2021/11/10 05:22:18;;;;;;;8.83;6.27;;;7.50;98.40;;;;;;4995829;28;20482;-67
2021/11/10 05:24:44;;;;;;;8.40;5.80;;;7.40;98.30;;;;;;5009711;28;20426;-67
2021/11/10 05:27:10;;;;;;;8.43;7.03;;;7.40;98.30;;;;;;5012518;28;20465;-67
2021/11/10 05:29:36;;;;;;;9.00;6.50;;;7.50;98.30;;;;;;5011942;28;20185;-67
2021/11/10 05:32:02;;;;;;;11.40;7.27;;;7.30;98.40;;;;;;4990518;28;20183;-74
2021/11/10 05:34:28;;;;;;;11.53;10.33;;;7.30;98.20;;;;;;4994667;28;20419;-68
2021/11/10 05:36:54;;;;;;;11.33;8.77;;;7.30;98.30;;;;;;4994581;28;20424;-68
2021/11/10 05:39:21;;;;;;;9.47;8.47;;;7.30;98.30;;;;;;5010328;28;20474;-66
2021/11/10 05:41:47;;;;;;;9.20;8.00;;;7.30;98.30;;;;;;5013743;28;20479;-67
2021/11/10 05:44:15;;;;;;;12.80;9.13;;;7.40;98.50;;;;;;5011344;28;20947;-67
2021/11/10 05:46:41;;;;;;;7.80;6.77;;;7.50;98.60;;;;;;5012445;28;20884;-67
2021/11/10 05:49:08;;;;;;;9.67;7.90;;;7.60;98.60;;;;;;5011607;28;20456;-67
2021/11/10 05:51:34;;;;;;;7.50;6.53;;;7.60;98.40;;;;;;5012619;28;20393;-67
2021/11/10 05:54:00;;;;;;;6.60;6.00;;;7.70;98.30;;;;;;4994635;28;20987;-72
2021/11/10 05:56:27;;;;;;;6.13;5.50;;;7.70;98.40;;;;;;5012384;28;20493;-67
2021/11/10 05:59:00;;;;;;;7.40;5.53;;;7.80;98.40;;;;;;5012141;28;20272;-66
2021/11/10 06:01:27;;;;;;;8.33;6.93;;;7.80;98.00;;;;;;5012056;28;20512;-67
2021/11/10 06:03:54;;;;;;;8.03;7.20;;;7.70;98.00;;;;;;5011948;28;20979;-67
2021/11/10 06:06:21;;;;;;;7.97;7.00;;;7.70;97.80;;;;;;5011182;28;21010;-67
2021/11/10 06:08:47;;;;;;;8.90;8.00;;;7.60;97.60;;;;;;5012017;28;20460;-67
2021/11/10 06:11:13;;;;;;;12.13;10.40;;;7.60;97.40;;;;;;5011116;28;20431;-67
2021/11/10 06:13:39;;;;;;;11.07;8.27;;;7.50;97.40;;;;;;5012014;28;20619;-69
2021/11/10 06:16:06;;;;;;;12.10;10.70;;;7.50;97.50;;;;;;5011275;28;20438;-68
2021/11/10 06:18:32;;;;;;;10.50;8.00;;;7.40;98.00;;;;;;5012983;28;20413;-67
2021/11/10 06:21:00;;;;;;;10.60;7.70;;;7.40;98.30;;;;;;5012993;28;20432;-67
2021/11/10 06:23:26;;;;;;;13.27;9.00;;;7.40;98.30;;;;;;5012827;28;20452;-67
2021/11/10 06:25:52;;;;;;;10.20;8.30;;;7.30;98.30;;;;;;4995251;28;20428;-67
2021/11/10 06:28:18;;;;;;;10.47;8.73;;;7.30;98.30;;;;;;5012373;28;20939;-67
2021/11/10 06:30:44;;;;;;;13.87;8.90;;;7.20;99.00;;;;;;5012572;28;20483;-68
2021/11/10 06:33:10;;;;;;;11.40;7.73;;;7.20;99.10;;;;;;5012368;28;20181;-68
2021/11/10 06:35:36;;;;;;;16.13;10.70;;;7.20;99.30;;;;;;5012771;28;20427;-68
2021/11/10 06:38:02;;;;;;;10.70;8.10;;;7.20;99.10;;;;;;5012677;28;20421;-75
2021/11/10 06:40:27;;;;;;;9.50;8.20;;;7.20;98.90;;;;;;5012740;28;20177;-69
2021/11/10 06:42:53;;;;;;;10.67;9.67;;;7.10;98.70;;;;;;5012338;28;20610;-68
2021/11/10 06:45:19;;;;;;;10.33;8.70;;;7.10;98.40;;;;;;4993999;28;20195;-69
2021/11/10 06:47:45;;;;;;;13.13;10.70;;;7.20;98.80;;;;;;5012823;28;20202;-69
2021/11/10 06:50:12;;;;;;;10.10;7.33;;;7.20;98.90;;;;;;5011521;28;20432;-69
2021/11/10 06:52:38;;;;;;;8.73;6.90;;;7.20;98.80;;;;;;5012769;28;20256;-69
2021/11/10 06:55:04;;;;;;;10.90;7.43;;;7.30;98.60;;;;;;5012203;28;20413;-79
2021/11/10 06:57:31;;;;;;;8.00;6.83;;;7.10;98.90;;;;;;4994050;28;20532;-69
2021/11/10 06:59:57;;;;;;;9.03;8.10;;;6.90;99.80;;;;;;4995114;28;20412;-72
2021/11/10 07:02:23;;;;;;;9.70;8.70;;;7.10;99.90;;;;;;5011878;28;21119;-72
2021/11/10 07:04:49;;;;;;;11.03;10.03;;;7.80;99.90;;;;;;5012875;28;20409;-72
2021/11/10 07:07:15;;;;;;;11.40;10.20;;;8.50;99.90;;;;;;5011743;28;21047;-72
2021/11/10 07:09:41;;;;;;;10.93;9.97;;;9.20;99.90;;;;;;5012351;28;20266;-73
2021/11/10 07:12:08;;;;;;;10.43;9.33;;;9.80;99.90;;;;;;5010638;28;20182;-73
2021/11/10 07:14:33;;;;;;;10.00;9.07;;;10.30;97.60;;;;;;5004466;28;20442;-72
2021/11/10 07:16:59;;;;;;;13.07;11.10;;;10.70;95.80;;;;;;4993605;28;20416;-72
2021/11/10 07:19:25;;;;;;;10.43;9.20;;;11.10;94.50;;;;;;4994000;28;20262;-72
2021/11/10 07:21:51;;;;;;;9.87;8.97;;;11.40;93.20;;;;;;4995020;28;20188;-72
2021/11/10 07:24:17;;;;;;;11.30;10.10;;;11.60;91.80;;;;;;4994184;28;20421;-72
2021/11/10 07:26:43;;;;;;;14.57;10.23;;;11.80;91.00;;;;;;5012191;28;20250;-72
2021/11/10 07:29:08;;;;;;;10.87;9.87;;;12.00;90.30;;;;;;5011204;28;20474;-73
2021/11/10 07:31:34;;;;;;;11.73;10.53;;;12.20;89.40;;;;;;4995098;28;20711;-72
2021/11/10 07:34:01;;;;;;;16.87;8.70;;;12.30;86.50;;;;;;5012431;28;20183;-71
2021/11/10 07:36:27;;;;;;;13.33;10.80;;;12.00;85.50;;;;;;5011272;28;20978;-72
2021/11/10 07:38:55;;;;;;;11.00;8.50;;;11.80;87.40;;;;;;5011923;28;20463;-72
2021/11/10 07:41:23;;;;;;;10.70;8.40;;;12.00;88.60;;;;;;4993561;28;20429;-72
2021/11/10 07:43:52;;;;;;;14.30;9.00;;;12.30;89.40;;;;;;5011163;28;20495;-74
2021/11/10 07:46:19;;;;;;;10.37;9.27;;;12.50;88.40;;;;;;5010313;28;20430;-73
2021/11/10 07:48:47;;;;;;;12.40;9.30;;;12.60;87.10;;;;;;5011986;28;20500;-72
2021/11/10 07:51:13;;;;;;;13.30;11.80;;;12.80;86.30;;;;;;5011216;28;20426;-73
2021/11/10 07:53:40;;;;;;;10.70;9.13;;;12.90;85.90;;;;;;4996958;28;20760;-72
2021/11/10 07:56:06;;;;;;;12.90;9.67;;;13.00;84.70;;;;;;4997915;28;20911;-79
2021/11/10 07:58:33;;;;;;;12.97;11.63;;;13.20;84.30;;;;;;5015639;28;20458;-72
2021/11/10 08:00:59;;;;;;;16.03;11.37;;;13.30;83.70;;;;;;5015437;28;20925;-72
2021/11/10 08:03:24;;;;;;;10.10;8.83;;;13.40;82.80;;;;;;5015030;28;20538;-72
2021/11/10 08:05:50;;;;;;;10.13;9.10;;;13.50;82.80;;;;;;5015852;28;20425;-72
2021/11/10 08:08:16;;;;;;;17.20;10.23;;;13.60;82.50;;;;;;5014146;28;20242;-72
2021/11/10 08:10:43;;;;;;;11.80;10.10;;;13.60;82.40;;;;;;5015775;28;20434;-72
2021/11/10 08:13:09;;;;;;;20.40;12.47;;;13.70;81.80;;;;;;5015096;28;20224;-78
2021/11/10 08:15:36;;;;;;;15.67;12.57;;;13.80;81.90;;;;;;5015091;28;20872;-72
2021/11/10 08:18:03;;;;;;;12.80;10.90;;;13.80;82.40;;;;;;5019082;28;20431;-72
2021/11/10 08:20:29;;;;;;;16.97;11.90;;;13.90;81.50;;;;;;5014704;28;20406;-73
2021/11/10 08:22:55;;;;;;;17.63;12.93;;;13.90;81.30;;;;;;5018576;28;20453;-72
2021/11/10 08:25:21;;;;;;;18.27;13.50;;;13.90;81.40;;;;;;5034184;28;20416;-69
2021/11/10 08:27:47;;;;;;;14.07;11.03;;;13.90;80.60;;;;;;5034371;28;20465;-69
2021/11/10 08:30:17;;;;;;;13.53;11.83;;;13.40;79.80;;;;;;5014097;28;20205;-68
2021/11/10 08:32:44;;;;;;;14.30;10.67;;;13.00;80.60;;;;;;5020141;28;20430;-68
2021/11/10 08:35:10;;;;;;;14.67;11.30;;;12.60;81.50;;;;;;4996899;28;20421;-79
2021/11/10 08:37:37;;;;;;;14.70;10.80;;;12.20;82.80;;;;;;4997458;28;20422;-68
2021/11/10 08:40:06;;;;;;;14.10;10.73;;;11.90;84.50;;;;;;4997644;28;20416;-68
2021/11/10 08:42:35;;;;;;;17.60;9.30;;;11.70;86.70;;;;;;4996548;28;20472;-68
2021/11/10 08:45:07;;;;;;;15.43;9.40;;;11.70;87.40;;;;;;5014440;28;20427;-69
2021/11/10 08:47:33;;;;;;;15.80;10.57;;;11.70;88.70;;;;;;4993917;28;20469;-68
2021/11/10 08:49:59;;;;;;;11.97;10.60;;;11.90;89.50;;;;;;5015081;28;20423;-68
2021/11/10 08:52:27;;;;;;;14.33;10.40;;;12.30;89.30;;;;;;5014066;28;20300;-69
2021/11/10 08:54:53;;;;;;;11.07;9.90;;;12.50;88.40;;;;;;5015184;28;20686;-68
2021/11/10 08:57:18;;;;;;;15.43;10.37;;;12.50;88.40;;;;;;5014069;28;20509;-69
2021/11/10 08:59:44;;;;;;;12.30;9.60;;;12.40;88.10;;;;;;5014872;28;20658;-68
2021/11/10 09:02:10;;;;;;;12.13;9.77;;;12.20;88.10;;;;;;5014360;28;20187;-77
2021/11/10 09:04:36;;;;;;;13.00;9.93;;;12.00;89.40;;;;;;5014446;28;20186;-68
2021/11/10 09:07:01;;;;;;;14.20;11.07;;;11.80;90.30;;;;;;5014299;28;20959;-68
2021/11/10 09:09:27;;;;;;;11.33;9.40;;;11.60;90.80;;;;;;5013673;28;20278;-68
2021/11/10 09:11:53;;;;;;;15.27;10.40;;;11.40;91.20;;;;;;5014178;28;20422;-68
2021/11/10 09:14:20;;;;;;;13.23;9.93;;;11.30;91.80;;;;;;5013795;28;20176;-69
2021/11/10 09:16:47;;;;;;;20.13;10.43;;;11.30;92.20;;;;;;4997241;28;20475;-68
2021/11/10 09:19:13;;;;;;;13.47;9.80;;;11.30;92.30;;;;;;5013816;28;20755;-79
2021/11/10 09:21:39;;;;;;;12.50;9.20;;;11.40;92.20;;;;;;4996989;28;20462;-68
2021/11/10 09:24:06;;;;;;;11.70;9.87;;;11.40;91.40;;;;;;5014263;28;20424;-68
2021/11/10 09:26:32;;;;;;;15.13;10.90;;;11.40;91.40;;;;;;5013514;28;20710;-69
2021/11/10 09:28:58;;;;;;;11.93;10.07;;;11.30;91.90;;;;;;5014131;28;20476;-68
2021/11/10 09:31:24;;;;;;;11.87;10.60;;;11.30;92.90;;;;;;5013264;28;20426;-68
2021/11/10 09:33:54;;;;;;;17.43;10.70;;;11.30;93.50;;;;;;5013469;28;20213;-68
2021/11/10 09:36:20;;;;;;;13.90;11.00;;;11.50;93.90;;;;;;5012891;28;20421;-68
2021/11/10 09:38:46;;;;;;;12.07;10.37;;;11.50;93.40;;;;;;5013207;28;20454;-68
2021/11/10 09:41:12;;;;;;;13.17;10.97;;;11.60;93.40;;;;;;5013766;28;20182;-78
2021/11/10 09:43:41;;;;;;;14.80;12.17;;;11.70;92.70;;;;;;5013855;28;20561;-68
2021/11/10 09:46:09;;;;;;;18.57;14.20;;;11.80;92.10;;;;;;5013790;28;20442;-68
2021/11/10 09:48:36;;;;;;;14.60;13.07;;;11.90;93.10;;;;;;5012710;28;20562;-68
2021/11/10 09:51:04;;;;;;;13.83;12.43;;;12.10;94.50;;;;;;5013960;28;20529;-68
2021/11/10 09:53:30;;;;;;;13.83;11.17;;;12.30;93.70;;;;;;5012882;28;20433;-69
2021/11/10 09:55:56;;;;;;;14.70;12.03;;;12.70;93.50;;;;;;5013861;28;20511;-70
2021/11/10 09:58:24;;;;;;;13.73;11.13;;;13.00;92.70;;;;;;5012970;28;20633;-69
2021/11/10 10:00:59;;;;;;;16.40;14.70;;;13.30;93.50;;;;;;5013635;28;20420;-69
2021/11/10 10:03:25;;;;;;;15.13;13.57;;;13.70;91.40;;;;;;5012709;28;20425;-69
2021/11/10 10:05:53;;;;;;;13.03;11.63;;;14.10;90.50;;;;;;5013430;28;20421;-69
2021/11/10 10:08:21;;;;;;;12.90;11.40;;;14.40;90.00;;;;;;5012460;28;20454;-69
2021/11/10 10:10:47;;;;;;;13.60;11.70;;;14.60;87.10;;;;;;5013262;28;20513;-70
2021/11/10 10:13:14;;;;;;;16.70;10.87;;;14.80;89.30;;;;;;5013086;28;20941;-75
2021/11/10 10:15:42;;;;;;;12.90;11.43;;;15.00;86.00;;;;;;5012576;28;20407;-68
2021/11/10 10:18:16;;;;;;;12.00;10.40;;;15.10;84.10;;;;;;5012961;28;20431;-68
2021/11/10 10:20:43;;;;;;;14.57;10.87;;;15.20;86.70;;;;;;5012980;28;20431;-68
2021/11/10 10:23:15;;;;;;;12.50;10.77;;;15.40;85.30;;;;;;5013016;28;20919;-70
2021/11/10 10:25:54;;;;;;;12.77;11.33;;;15.40;83.10;;;;;;5013109;28;20401;-70
2021/11/10 10:28:37;;;;;;;12.43;10.20;;;15.30;84.80;;;;;;5012103;28;20471;-70
2021/11/10 10:31:10;;;;;;;12.60;11.10;;;15.10;87.10;;;;;;5013302;28;20405;-70
2021/11/10 10:33:39;;;;;;;14.33;10.03;;;15.00;87.00;;;;;;5012105;28;20403;-69
2021/11/10 10:36:11;;;;;;;12.83;10.27;;;15.00;84.80;;;;;;5013213;28;20422;-70
2021/11/10 10:38:39;;;;;;;11.43;10.23;;;14.90;84.20;;;;;;5009327;28;20407;-70
2021/11/10 10:41:07;;;;;;;16.73;10.70;;;14.90;84.10;;;;;;4995305;28;20441;-70
2021/11/10 10:43:44;;;;;;;11.40;10.23;;;14.90;84.50;;;;;;5011992;28;20478;-70
2021/11/10 10:46:10;;;;;;;13.53;10.23;;;14.80;84.80;;;;;;5012722;28;20414;-70
2021/11/10 10:48:38;;;;;;;12.90;10.17;;;14.80;84.20;;;;;;4994341;28;20516;-69
2021/11/10 10:51:10;;;;;;;12.47;10.27;;;14.70;85.70;;;;;;5012873;28;20419;-70
2021/11/10 10:53:45;;;;;;;10.57;9.47;;;14.70;86.80;;;;;;4994888;28;21058;-69
2021/11/10 10:56:17;;;;;;;12.90;10.03;;;14.40;87.30;;;;;;5012887;28;20413;-70
2021/11/10 10:58:44;;;;;;;12.10;10.93;;;14.40;87.40;;;;;;5012426;28;20457;-70
2021/11/10 11:01:24;;;;;;;11.40;10.20;;;14.50;86.40;;;;;;5012737;28;20415;-70
2021/11/10 11:03:57;;;;;;;10.33;9.33;;;14.50;86.80;;;;;;5012524;28;20415;-70
2021/11/10 11:06:37;;;;;;;12.80;10.00;;;14.60;87.30;;;;;;5011885;28;20748;-70
2021/11/10 11:09:11;;;;;;;13.63;9.10;;;14.70;86.80;;;;;;5012643;28;20928;-70
2021/11/10 11:11:43;;;;;;;13.80;8.43;;;14.80;84.00;;;;;;5011893;28;20412;-70
2021/11/10 11:14:25;;;;;;;8.83;7.40;;;15.00;83.60;;;;;;5012607;28;20417;-70
2021/11/10 11:17:03;;;;;;;7.23;6.53;;;15.10;83.70;;;;;;5012564;28;20431;-70
2021/11/10 11:19:33;;;;;;;7.77;7.03;;;15.20;81.10;;;;;;5011802;28;20887;-70
2021/11/10 11:22:00;;;;;;;9.60;7.53;;;15.20;81.90;;;;;;5012395;28;20465;-70
2021/11/10 11:24:36;;;;;;;9.60;7.70;;;15.20;81.50;;;;;;4994149;28;20500;-70
2021/11/10 11:27:15;;;;;;;7.70;6.30;;;15.10;82.80;;;;;;5011517;28;20416;-70
2021/11/10 11:29:43;;;;;;;7.60;6.80;;;15.00;81.50;;;;;;5011388;28;20438;-70
2021/11/10 11:32:30;;;;;;;10.73;7.37;;;15.00;81.90;;;;;;5012472;28;20450;-70
2021/11/10 11:35:08;;;;;;;8.63;7.83;;;15.00;82.70;;;;;;5012464;28;20404;-70
2021/11/10 11:37:34;;;;;;;7.63;6.83;;;14.90;82.10;;;;;;5011516;28;20439;-70
2021/11/10 11:40:13;;;;;;;10.60;7.33;;;14.90;83.50;;;;;;5012633;28;20899;-70
2021/11/10 11:42:39;;;;;;;8.10;6.80;;;14.90;83.50;;;;;;5011250;28;21085;-70
2021/11/10 11:45:07;;;;;;;9.73;7.90;;;14.80;82.70;;;;;;5012315;28;20407;-70
2021/11/10 11:47:33;;;;;;;7.93;6.93;;;14.80;84.90;;;;;;4993729;28;20473;-70
2021/11/10 11:50:03;;;;;;;7.23;6.53;;;14.80;83.90;;;;;;5012038;28;20423;-70
2021/11/10 11:52:32;;;;;;;8.40;7.03;;;14.70;83.40;;;;;;5011321;28;20658;-70
2021/11/10 11:55:01;;;;;;;13.53;8.10;;;14.70;82.10;;;;;;5012089;28;20418;-70
2021/11/10 11:57:29;;;;;;;8.43;7.63;;;14.60;82.00;;;;;;5011266;28;20401;-70
2021/11/10 11:59:58;;;;;;;7.57;6.77;;;14.60;82.20;;;;;;4994743;28;20407;-70
2021/11/10 12:02:30;;;;;;;7.30;6.60;;;14.50;82.50;;;;;;4993713;28;20780;-71
2021/11/10 12:04:57;;;;;;;7.50;6.80;;;14.50;83.40;;;;;;5011922;28;20422;-69
2021/11/10 12:07:45;;;;;;;8.00;6.80;;;14.40;83.70;;;;;;5011210;28;20437;-76
2021/11/10 12:10:20;;;;;;;9.97;7.53;;;14.40;85.30;;;;;;5011797;28;20409;-70
2021/11/10 12:12:47;;;;;;;7.83;7.17;;;14.30;84.20;;;;;;5011514;28;20422;-70
2021/11/10 12:15:14;;;;;;;6.27;5.67;;;14.30;84.00;;;;;;5011725;28;20752;-70
2021/11/10 12:18:25;;;;;;;10.17;8.20;;;14.30;83.20;;;;;;5010706;28;20438;-69
2021/11/10 12:21:01;;;;;;;7.93;6.70;;;14.40;83.80;;;;;;5007380;28;20434;-70
2021/11/10 12:23:53;;;;;;;7.70;7.00;;;14.30;84.10;;;;;;4993658;28;20822;-70
2021/11/10 12:26:21;;;;;;;8.27;7.00;;;14.40;84.40;;;;;;4974586;28;20426;-70
2021/11/10 12:28:50;;;;;;;7.33;6.60;;;14.40;84.50;;;;;;5011324;28;20458;-70
2021/11/10 12:31:35;;;;;;;7.13;6.43;;;14.40;86.70;;;;;;4994106;28;20759;-70
2021/11/10 12:34:02;;;;;;;6.93;6.23;;;14.50;85.00;;;;;;5011925;28;20410;-70
2021/11/10 12:37:14;;;;;;;8.40;7.33;;;14.50;85.10;;;;;;5010975;28;20456;-70
2021/11/10 12:39:42;;;;;;;8.10;7.47;;;14.50;86.00;;;;;;5007931;28;20453;-70
2021/11/10 12:42:10;;;;;;;9.27;7.47;;;14.50;84.80;;;;;;5014723;28;20954;-69
2021/11/10 12:44:44;;;;;;;7.10;6.20;;;14.60;84.30;;;;;;5014314;28;20422;-70